Terminal Aerodrome Forecast
Issued by NWS Wilmington, NC

Home | Current Version | Previous Version | Text Only | Print | Product List | Glossary On
Versions: 1 2 3 4 5 6 7 8 9 10 11 12 13 14 15
000
FTUS42 KILM 301844 AAA
TAFILM
TAF AMD
KILM 301844Z 3019/3118 23012G22KT P6SM SCT025 BKN050 OVC070
     FM302200 29004KT P6SM FEW020 BKN050
     FM310600 35003KT P6SM SKC
     FM311300 09008KT P6SM SKC=

USA.gov is the U.S. government's official web portal to all federal, state and local government web resources and services.